sensor_id;sensor_type;location;lat;lon;timestamp;pressure;altitude;pressure_sealevel;temperature;humidity
78675;BME280;67990;59.826;30.108;2023-04-10T06:11:45;102774.94;;;22.78;17.45
78675;BME280;67990;59.826;30.108;2023-04-10T06:17:02;102777.31;;;23.05;17.56
78675;BME280;67990;59.826;30.108;2023-04-10T06:25:55;102771.31;;;23.43;17.47
78675;BME280;67990;59.826;30.108;2023-04-10T06:34:17;102779.28;;;24.15;17.22
78675;BME280;67990;59.826;30.108;2023-04-10T06:37:05;102768.56;;;24.84;16.52
78675;BME280;67990;59.826;30.108;2023-04-10T06:39:32;102764.91;;;24.77;15.80
78675;BME280;67990;59.826;30.108;2023-04-10T06:41:59;102769.47;;;23.60;16.88
78675;BME280;67990;59.826;30.108;2023-04-10T06:44:47;102767.50;;;24.55;16.52
78675;BME280;67990;59.826;30.108;2023-04-10T06:47:15;102770.84;;;22.25;18.01
78675;BME280;67990;59.826;30.108;2023-04-10T06:49:42;102771.16;;;23.29;17.89
78675;BME280;67990;59.826;30.108;2023-04-10T06:52:27;102771.91;;;22.89;17.62
78675;BME280;67990;59.826;30.108;2023-04-10T06:54:55;102769.63;;;24.37;16.68
78675;BME280;67990;59.826;30.108;2023-04-10T06:57:41;102767.97;;;24.66;16.30
78675;BME280;67990;59.826;30.108;2023-04-10T07:00:10;102767.69;;;24.53;16.04
78675;BME280;67990;59.826;30.108;2023-04-10T07:02:38;102767.38;;;24.48;16.63
78675;BME280;67990;59.826;30.108;2023-04-10T07:05:05;102764.22;;;24.75;15.79
78675;BME280;67990;59.826;30.108;2023-04-10T07:07:32;102771.13;;;25.00;16.37
78675;BME280;67990;59.826;30.108;2023-04-10T07:09:59;102766.34;;;24.88;15.63
78675;BME280;67990;59.826;30.108;2023-04-10T07:12:44;102769.31;;;24.93;15.79
78675;BME280;67990;59.826;30.108;2023-04-10T07:15:30;102770.84;;;25.40;15.34
78675;BME280;67990;59.826;30.108;2023-04-10T07:17:57;102768.66;;;24.68;16.41
78675;BME280;67990;59.826;30.108;2023-04-10T07:20:24;102775.69;;;24.69;16.09
78675;BME280;67990;59.826;30.108;2023-04-10T07:22:52;102768.03;;;24.50;16.35
78675;BME280;67990;59.826;30.108;2023-04-10T07:25:36;102766.66;;;25.38;16.46
78675;BME280;67990;59.826;30.108;2023-04-10T07:28:04;102777.03;;;25.63;15.59
78675;BME280;67990;59.826;30.108;2023-04-10T07:30:32;102770.94;;;25.24;16.37
78675;BME280;67990;59.826;30.108;2023-04-10T07:33:17;102773.50;;;25.77;15.54
78675;BME280;67990;59.826;30.108;2023-04-10T07:36:01;102768.44;;;25.97;15.44
78675;BME280;67990;59.826;30.108;2023-04-10T07:38:46;102777.13;;;25.70;16.18
78675;BME280;67990;59.826;30.108;2023-04-10T07:41:13;102777.28;;;26.06;15.72
78675;BME280;67990;59.826;30.108;2023-04-10T07:43:40;102766.31;;;26.07;15.42
78675;BME280;67990;59.826;30.108;2023-04-10T07:46:46;102773.41;;;25.85;15.94
78675;BME280;67990;59.826;30.108;2023-04-10T07:49:13;102771.53;;;26.09;15.49
78675;BME280;67990;59.826;30.108;2023-04-10T07:51:40;102768.47;;;23.53;17.66
78675;BME280;67990;59.826;30.108;2023-04-10T07:54:26;102780.81;;;23.86;17.71
78675;BME280;67990;59.826;30.108;2023-04-10T07:57:10;102768.47;;;23.37;19.86
78675;BME280;67990;59.826;30.108;2023-04-10T07:59:37;102762.53;;;23.89;19.22
78675;BME280;67990;59.826;30.108;2023-04-10T08:02:05;102761.41;;;23.76;19.89
78675;BME280;67990;59.826;30.108;2023-04-10T08:04:33;102758.34;;;22.83;21.29
78675;BME280;67990;59.826;30.108;2023-04-10T08:07:00;102752.59;;;24.14;18.99
78675;BME280;67990;59.826;30.108;2023-04-10T08:09:27;102759.28;;;25.54;17.03
78675;BME280;67990;59.826;30.108;2023-04-10T08:11:55;102761.44;;;25.14;16.43
78675;BME280;67990;59.826;30.108;2023-04-10T08:14:22;102757.56;;;26.20;16.06
78675;BME280;67990;59.826;30.108;2023-04-10T08:16:49;102757.00;;;24.37;18.60
78675;BME280;67990;59.826;30.108;2023-04-10T08:19:17;102761.44;;;25.36;17.72
78675;BME280;67990;59.826;30.108;2023-04-10T08:21:44;102757.31;;;25.03;18.58
78675;BME280;67990;59.826;30.108;2023-04-10T08:24:30;102759.00;;;25.78;16.03
78675;BME280;67990;59.826;30.108;2023-04-10T08:27:14;102752.09;;;25.99;16.22
78675;BME280;67990;59.826;30.108;2023-04-10T08:29:43;102745.84;;;26.42;15.75
78675;BME280;67990;59.826;30.108;2023-04-10T08:32:27;102741.13;;;26.65;16.21
78675;BME280;67990;59.826;30.108;2023-04-10T08:34:56;102742.25;;;26.56;15.07
78675;BME280;67990;59.826;30.108;2023-04-10T08:37:42;102740.97;;;26.52;16.25
78675;BME280;67990;59.826;30.108;2023-04-10T08:40:10;102739.75;;;26.54;16.96
78675;BME280;67990;59.826;30.108;2023-04-10T08:42:37;102745.00;;;26.27;15.71
78675;BME280;67990;59.826;30.108;2023-04-10T08:45:05;102743.25;;;26.34;16.00
78675;BME280;67990;59.826;30.108;2023-04-10T08:47:35;102734.25;;;26.12;16.12
78675;BME280;67990;59.826;30.108;2023-04-10T08:50:09;102729.63;;;26.06;16.54
78675;BME280;67990;59.826;30.108;2023-04-10T08:52:37;102732.50;;;26.05;16.32
78675;BME280;67990;59.826;30.108;2023-04-10T08:55:11;102721.03;;;25.73;16.34
78675;BME280;67990;59.826;30.108;2023-04-10T08:57:39;102729.97;;;25.88;16.23
78675;BME280;67990;59.826;30.108;2023-04-10T09:00:07;102723.47;;;25.09;16.99
78675;BME280;67990;59.826;30.108;2023-04-10T09:02:37;102723.13;;;25.12;17.23
78675;BME280;67990;59.826;30.108;2023-04-10T09:05:10;102724.69;;;24.84;17.82
78675;BME280;67990;59.826;30.108;2023-04-10T09:08:13;102716.66;;;24.15;18.43
78675;BME280;67990;59.826;30.108;2023-04-10T09:10:59;102719.81;;;25.02;17.85
78675;BME280;67990;59.826;30.108;2023-04-10T09:13:44;102714.59;;;24.63;18.69
78675;BME280;67990;59.826;30.108;2023-04-10T09:16:12;102718.56;;;25.12;18.45
78675;BME280;67990;59.826;30.108;2023-04-10T09:18:58;102710.81;;;24.42;18.83
78675;BME280;67990;59.826;30.108;2023-04-10T09:21:50;102719.47;;;24.82;17.98
78675;BME280;67990;59.826;30.108;2023-04-10T09:24:17;102713.19;;;24.67;18.15
78675;BME280;67990;59.826;30.108;2023-04-10T09:26:44;102712.25;;;23.67;18.96
78675;BME280;67990;59.826;30.108;2023-04-10T09:29:11;102712.31;;;24.44;19.01
78675;BME280;67990;59.826;30.108;2023-04-10T09:31:38;102708.50;;;23.92;19.87
78675;BME280;67990;59.826;30.108;2023-04-10T09:34:09;102706.19;;;23.81;19.04
78675;BME280;67990;59.826;30.108;2023-04-10T09:36:37;102702.88;;;22.75;21.47
78675;BME280;67990;59.826;30.108;2023-04-10T09:42:30;102698.06;;;23.35;20.30
78675;BME280;67990;59.826;30.108;2023-04-10T09:44:57;102694.50;;;23.18;19.95
78675;BME280;67990;59.826;30.108;2023-04-10T09:50:10;102689.34;;;22.35;19.98
78675;BME280;67990;59.826;30.108;2023-04-10T09:52:56;102696.25;;;21.96;21.09
78675;BME280;67990;59.826;30.108;2023-04-10T09:55:25;102686.81;;;22.75;21.43
78675;BME280;67990;59.826;30.108;2023-04-10T09:58:11;102691.84;;;23.34;20.23
78675;BME280;67990;59.826;30.108;2023-04-10T10:00:40;102694.19;;;23.13;20.04
78675;BME280;67990;59.826;30.108;2023-04-10T10:03:09;102685.28;;;23.37;20.05
78675;BME280;67990;59.826;30.108;2023-04-10T10:05:38;102678.41;;;23.42;20.22
78675;BME280;67990;59.826;30.108;2023-04-10T10:08:06;102678.78;;;23.07;19.67
78675;BME280;67990;59.826;30.108;2023-04-10T10:10:37;102683.50;;;22.32;21.02
78675;BME280;67990;59.826;30.108;2023-04-10T10:13:07;102675.66;;;22.38;19.38
78675;BME280;67990;59.826;30.108;2023-04-10T10:15:40;102681.50;;;21.67;20.42
78675;BME280;67990;59.826;30.108;2023-04-10T10:18:17;102681.44;;;21.07;21.65
78675;BME280;67990;59.826;30.108;2023-04-10T10:21:04;102668.22;;;21.23;21.03
78675;BME280;67990;59.826;30.108;2023-04-10T10:23:53;102671.34;;;21.19;21.50
78675;BME280;67990;59.826;30.108;2023-04-10T10:26:22;102665.97;;;20.93;22.65
78675;BME280;67990;59.826;30.108;2023-04-10T10:28:50;102670.75;;;21.07;22.67
78675;BME280;67990;59.826;30.108;2023-04-10T10:31:18;102661.84;;;20.81;22.22
78675;BME280;67990;59.826;30.108;2023-04-10T10:34:05;102654.03;;;20.53;23.14
78675;BME280;67990;59.826;30.108;2023-04-10T10:36:33;102658.00;;;20.49;23.47
78675;BME280;67990;59.826;30.108;2023-04-10T10:39:21;102662.91;;;20.71;23.67
78675;BME280;67990;59.826;30.108;2023-04-10T10:41:59;102658.53;;;20.70;23.83
78675;BME280;67990;59.826;30.108;2023-04-10T10:47:39;102652.75;;;20.57;22.83
78675;BME280;67990;59.826;30.108;2023-04-10T10:50:08;102648.06;;;20.24;23.90
78675;BME280;67990;59.826;30.108;2023-04-10T10:52:39;102652.16;;;19.55;25.83
78675;BME280;67990;59.826;30.108;2023-04-10T10:55:27;102645.47;;;19.78;24.57
78675;BME280;67990;59.826;30.108;2023-04-10T10:57:59;102638.34;;;19.23;25.69
78675;BME280;67990;59.826;30.108;2023-04-10T11:01:06;102636.97;;;18.90;26.22
78675;BME280;67990;59.826;30.108;2023-04-10T11:03:34;102635.75;;;18.75;27.00
78675;BME280;67990;59.826;30.108;2023-04-10T11:06:03;102630.28;;;18.67;27.66
78675;BME280;67990;59.826;30.108;2023-04-10T11:08:37;102628.44;;;18.68;26.39
78675;BME280;67990;59.826;30.108;2023-04-10T11:11:10;102637.75;;;18.15;25.57
78675;BME280;67990;59.826;30.108;2023-04-10T11:14:12;102633.22;;;17.57;26.42
78675;BME280;67990;59.826;30.108;2023-04-10T11:16:45;102631.94;;;17.31;27.37
78675;BME280;67990;59.826;30.108;2023-04-10T11:19:34;102616.75;;;17.63;27.77
78675;BME280;67990;59.826;30.108;2023-04-10T11:25:22;102610.38;;;17.45;30.65
78675;BME280;67990;59.826;30.108;2023-04-10T11:28:36;102613.78;;;17.56;31.70
78675;BME280;67990;59.826;30.108;2023-04-10T11:31:22;102616.47;;;17.66;31.98
78675;BME280;67990;59.826;30.108;2023-04-10T11:34:00;102610.56;;;17.62;32.32
78675;BME280;67990;59.826;30.108;2023-04-10T11:36:28;102604.56;;;17.40;32.32
78675;BME280;67990;59.826;30.108;2023-04-10T11:38:57;102608.00;;;17.81;32.24
78675;BME280;67990;59.826;30.108;2023-04-10T11:41:26;102602.63;;;17.72;32.58
78675;BME280;67990;59.826;30.108;2023-04-10T11:44:13;102601.41;;;17.85;31.34
78675;BME280;67990;59.826;30.108;2023-04-10T11:46:43;102601.38;;;17.16;32.68
78675;BME280;67990;59.826;30.108;2023-04-10T11:49:16;102595.41;;;17.23;32.99
78675;BME280;67990;59.826;30.108;2023-04-10T11:51:47;102586.56;;;17.13;33.18
78675;BME280;67990;59.826;30.108;2023-04-10T11:54:15;102590.22;;;17.22;33.03
78675;BME280;67990;59.826;30.108;2023-04-10T11:57:03;102585.38;;;16.86;34.03
78675;BME280;67990;59.826;30.108;2023-04-10T11:59:32;102589.25;;;16.82;33.45
78675;BME280;67990;59.826;30.108;2023-04-10T12:02:19;102573.03;;;17.26;34.13
78675;BME280;67990;59.826;30.108;2023-04-10T12:04:56;102573.66;;;17.09;33.60
78675;BME280;67990;59.826;30.108;2023-04-10T12:07:24;102576.38;;;16.98;32.96
78675;BME280;67990;59.826;30.108;2023-04-10T12:10:12;102579.63;;;17.01;32.55
78675;BME280;67990;59.826;30.108;2023-04-10T12:12:39;102577.59;;;16.94;33.63
78675;BME280;67990;59.826;30.108;2023-04-10T12:15:25;102573.16;;;16.94;34.52
78675;BME280;67990;59.826;30.108;2023-04-10T12:17:54;102569.50;;;17.16;34.36
78675;BME280;67990;59.826;30.108;2023-04-10T12:20:39;102565.13;;;17.15;34.97
78675;BME280;67990;59.826;30.108;2023-04-10T12:23:07;102556.75;;;16.69;35.19
78675;BME280;67990;59.826;30.108;2023-04-10T12:25:34;102558.94;;;16.84;35.14
78675;BME280;67990;59.826;30.108;2023-04-10T12:28:01;102556.97;;;16.56;34.81
78675;BME280;67990;59.826;30.108;2023-04-10T12:30:47;102554.81;;;16.50;35.51
78675;BME280;67990;59.826;30.108;2023-04-10T12:33:21;102553.06;;;16.81;34.77
78675;BME280;67990;59.826;30.108;2023-04-10T12:36:19;102546.59;;;16.94;34.44
78675;BME280;67990;59.826;30.108;2023-04-10T12:39:04;102554.22;;;16.47;33.85
78675;BME280;67990;59.826;30.108;2023-04-10T12:41:32;102550.06;;;16.22;34.21
78675;BME280;67990;59.826;30.108;2023-04-10T12:44:08;102560.34;;;16.15;35.12
78675;BME280;67990;59.826;30.108;2023-04-10T12:46:36;102555.44;;;16.11;35.11
78675;BME280;67990;59.826;30.108;2023-04-10T12:49:23;102566.25;;;15.65;35.35
78675;BME280;67990;59.826;30.108;2023-04-10T12:51:51;102557.56;;;15.41;36.12
78675;BME280;67990;59.826;30.108;2023-04-10T12:54:36;102550.19;;;15.23;35.75
78675;BME280;67990;59.826;30.108;2023-04-10T12:57:04;102548.75;;;14.86;36.34
78675;BME280;67990;59.826;30.108;2023-04-10T12:59:31;102539.56;;;14.68;37.38
78675;BME280;67990;59.826;30.108;2023-04-10T13:01:58;102547.19;;;14.94;36.77
78675;BME280;67990;59.826;30.108;2023-04-10T13:04:45;102549.16;;;14.58;36.51
78675;BME280;67990;59.826;30.108;2023-04-10T13:09:58;102556.16;;;14.35;37.27
78675;BME280;67990;59.826;30.108;2023-04-10T13:12:45;102547.53;;;13.97;37.43
78675;BME280;67990;59.826;30.108;2023-04-10T13:15:30;102542.66;;;14.04;38.20
78675;BME280;67990;59.826;30.108;2023-04-10T13:21:04;102544.56;;;13.66;38.43
78675;BME280;67990;59.826;30.108;2023-04-10T13:23:31;102543.16;;;13.85;37.85
78675;BME280;67990;59.826;30.108;2023-04-10T13:26:17;102538.47;;;13.89;37.88
78675;BME280;67990;59.826;30.108;2023-04-10T13:28:45;102533.78;;;13.92;37.00
78675;BME280;67990;59.826;30.108;2023-04-10T13:31:12;102535.63;;;13.92;37.58
78675;BME280;67990;59.826;30.108;2023-04-10T13:33:59;102535.72;;;13.90;38.33
78675;BME280;67990;59.826;30.108;2023-04-10T13:36:46;102534.84;;;14.02;38.04
78675;BME280;67990;59.826;30.108;2023-04-10T13:39:13;102537.91;;;13.96;36.94
78675;BME280;67990;59.826;30.108;2023-04-10T13:41:40;102534.84;;;14.02;36.60
78675;BME280;67990;59.826;30.108;2023-04-10T13:44:07;102535.31;;;14.07;36.42
78675;BME280;67990;59.826;30.108;2023-04-10T13:46:34;102527.97;;;13.76;36.51
78675;BME280;67990;59.826;30.108;2023-04-10T13:49:20;102527.31;;;13.73;36.83
78675;BME280;67990;59.826;30.108;2023-04-10T13:55:11;102535.81;;;13.53;37.20
78675;BME280;67990;59.826;30.108;2023-04-10T13:57:38;102523.06;;;13.47;36.53
78675;BME280;67990;59.826;30.108;2023-04-10T14:00:06;102528.56;;;13.44;36.63
78675;BME280;67990;59.826;30.108;2023-04-10T14:02:51;102525.81;;;13.58;36.06
78675;BME280;67990;59.826;30.108;2023-04-10T14:05:18;102525.47;;;13.62;35.72
78675;BME280;67990;59.826;30.108;2023-04-10T14:11:09;102526.38;;;13.38;35.66
78675;BME280;67990;59.826;30.108;2023-04-10T14:13:36;102522.88;;;13.37;34.51
78675;BME280;67990;59.826;30.108;2023-04-10T14:16:03;102509.47;;;13.40;34.18
78675;BME280;67990;59.826;30.108;2023-04-10T14:21:16;102518.03;;;12.94;35.00
78675;BME280;67990;59.826;30.108;2023-04-10T14:23:44;102521.41;;;12.83;35.24
78675;BME280;67990;59.826;30.108;2023-04-10T14:26:12;102522.13;;;12.85;35.15
78675;BME280;67990;59.826;30.108;2023-04-10T14:28:57;102512.56;;;12.72;35.84
78675;BME280;67990;59.826;30.108;2023-04-10T14:35:04;102512.72;;;12.44;35.91
78675;BME280;67990;59.826;30.108;2023-04-10T14:37:49;102504.09;;;12.54;35.25
78675;BME280;67990;59.826;30.108;2023-04-10T14:40:53;102503.25;;;12.41;35.95
78675;BME280;67990;59.826;30.108;2023-04-10T14:43:20;102511.53;;;12.35;35.55
78675;BME280;67990;59.826;30.108;2023-04-10T14:46:06;102514.97;;;12.11;35.82
78675;BME280;67990;59.826;30.108;2023-04-10T14:48:52;102510.88;;;12.19;35.35
78675;BME280;67990;59.826;30.108;2023-04-10T14:51:19;102518.03;;;12.17;35.55
78675;BME280;67990;59.826;30.108;2023-04-10T14:54:04;102516.00;;;12.08;36.23
78675;BME280;67990;59.826;30.108;2023-04-10T14:56:33;102517.97;;;12.05;36.11
78675;BME280;67990;59.826;30.108;2023-04-10T14:59:18;102506.22;;;11.84;36.32
78675;BME280;67990;59.826;30.108;2023-04-10T15:02:02;102506.88;;;11.87;36.06
78675;BME280;67990;59.826;30.108;2023-04-10T15:04:29;102501.25;;;11.79;36.62
78675;BME280;67990;59.826;30.108;2023-04-10T15:07:13;102509.00;;;11.54;37.15
78675;BME280;67990;59.826;30.108;2023-04-10T15:09:41;102503.28;;;11.62;37.16
78675;BME280;67990;59.826;30.108;2023-04-10T15:12:10;102496.56;;;11.56;37.51
78675;BME280;67990;59.826;30.108;2023-04-10T15:14:37;102501.69;;;11.45;37.56
78675;BME280;67990;59.826;30.108;2023-04-10T15:19:50;102496.25;;;11.34;37.34
78675;BME280;67990;59.826;30.108;2023-04-10T15:22:17;102499.00;;;11.18;37.74
78675;BME280;67990;59.826;30.108;2023-04-10T15:25:03;102500.31;;;10.97;38.87
78675;BME280;67990;59.826;30.108;2023-04-10T15:27:31;102494.88;;;10.86;38.59
78675;BME280;67990;59.826;30.108;2023-04-10T15:29:58;102497.66;;;10.69;38.84
78675;BME280;67990;59.826;30.108;2023-04-10T15:32:25;102489.69;;;10.71;38.54
78675;BME280;67990;59.826;30.108;2023-04-10T15:34:53;102493.97;;;10.58;38.80
78675;BME280;67990;59.826;30.108;2023-04-10T15:37:20;102488.69;;;10.30;39.85
78675;BME280;67990;59.826;30.108;2023-04-10T15:40:05;102482.63;;;10.14;39.69
78675;BME280;67990;59.826;30.108;2023-04-10T15:42:34;102492.09;;;10.01;40.02
78675;BME280;67990;59.826;30.108;2023-04-10T15:45:01;102486.09;;;9.99;39.38
78675;BME280;67990;59.826;30.108;2023-04-10T15:47:46;102476.09;;;9.90;39.18
78675;BME280;67990;59.826;30.108;2023-04-10T15:50:13;102478.28;;;9.68;39.55
78675;BME280;67990;59.826;30.108;2023-04-10T15:52:40;102479.19;;;9.67;39.52
78675;BME280;67990;59.826;30.108;2023-04-10T15:55:07;102475.22;;;9.60;39.52
78675;BME280;67990;59.826;30.108;2023-04-10T15:57:55;102475.97;;;9.46;39.97
78675;BME280;67990;59.826;30.108;2023-04-10T16:00:22;102473.94;;;9.36;40.79
78675;BME280;67990;59.826;30.108;2023-04-10T16:02:49;102476.22;;;9.26;41.39
78675;BME280;67990;59.826;30.108;2023-04-10T16:05:35;102472.41;;;9.16;41.64
78675;BME280;67990;59.826;30.108;2023-04-10T16:08:02;102470.81;;;9.14;41.69
78675;BME280;67990;59.826;30.108;2023-04-10T16:10:29;102474.84;;;9.04;42.10
78675;BME280;67990;59.826;30.108;2023-04-10T16:12:58;102470.66;;;8.84;43.13
78675;BME280;67990;59.826;30.108;2023-04-10T16:18:16;102473.25;;;8.69;43.99
78675;BME280;67990;59.826;30.108;2023-04-10T16:20:43;102473.09;;;8.55;44.97
78675;BME280;67990;59.826;30.108;2023-04-10T16:23:28;102468.94;;;8.34;45.87
78675;BME280;67990;59.826;30.108;2023-04-10T16:25:55;102472.34;;;8.19;46.32
78675;BME280;67990;59.826;30.108;2023-04-10T16:28:24;102484.41;;;8.04;47.41
78675;BME280;67990;59.826;30.108;2023-04-10T16:30:52;102483.38;;;7.90;47.63
78675;BME280;67990;59.826;30.108;2023-04-10T16:33:21;102482.19;;;7.78;48.21
78675;BME280;67990;59.826;30.108;2023-04-10T16:36:07;102487.19;;;7.66;48.46
78675;BME280;67990;59.826;30.108;2023-04-10T16:38:34;102483.53;;;7.51;48.80
78675;BME280;67990;59.826;30.108;2023-04-10T16:41:01;102486.47;;;7.44;49.27
78675;BME280;67990;59.826;30.108;2023-04-10T16:43:30;102484.28;;;7.35;49.10
78675;BME280;67990;59.826;30.108;2023-04-10T16:45:58;102482.97;;;7.26;49.06
78675;BME280;67990;59.826;30.108;2023-04-10T16:48:25;102477.81;;;7.25;48.76
78675;BME280;67990;59.826;30.108;2023-04-10T16:50:52;102469.41;;;7.18;48.43
78675;BME280;67990;59.826;30.108;2023-04-10T16:53:20;102472.94;;;7.17;48.40
78675;BME280;67990;59.826;30.108;2023-04-10T16:56:06;102476.75;;;7.10;47.58
78675;BME280;67990;59.826;30.108;2023-04-10T16:59:30;102472.69;;;7.03;47.44
78675;BME280;67990;59.826;30.108;2023-04-10T17:01:58;102470.56;;;6.93;47.67
78675;BME280;67990;59.826;30.108;2023-04-10T17:04:44;102465.81;;;6.82;47.94
78675;BME280;67990;59.826;30.108;2023-04-10T17:07:11;102461.94;;;6.72;48.23
78675;BME280;67990;59.826;30.108;2023-04-10T17:09:38;102459.81;;;6.62;48.57
78675;BME280;67990;59.826;30.108;2023-04-10T17:12:05;102458.38;;;6.55;48.87
78675;BME280;67990;59.826;30.108;2023-04-10T17:14:34;102459.41;;;6.51;48.95
78675;BME280;67990;59.826;30.108;2023-04-10T17:17:19;102455.41;;;6.42;48.84
78675;BME280;67990;59.826;30.108;2023-04-10T17:20:06;102451.53;;;6.32;48.73
78675;BME280;67990;59.826;30.108;2023-04-10T17:22:50;102458.75;;;6.26;48.62
78675;BME280;67990;59.826;30.108;2023-04-10T17:28:02;102460.44;;;6.07;48.86
78675;BME280;67990;59.826;30.108;2023-04-10T17:30:31;102455.38;;;6.04;48.71
78675;BME280;67990;59.826;30.108;2023-04-10T17:32:58;102461.69;;;5.98;48.53
78675;BME280;67990;59.826;30.108;2023-04-10T17:35:26;102458.31;;;5.94;48.68
78675;BME280;67990;59.826;30.108;2023-04-10T17:37:53;102462.06;;;5.89;48.67
78675;BME280;67990;59.826;30.108;2023-04-10T17:40:20;102460.34;;;5.88;49.08
78675;BME280;67990;59.826;30.108;2023-04-10T17:42:47;102467.50;;;5.83;48.74
78675;BME280;67990;59.826;30.108;2023-04-10T17:45:14;102462.38;;;5.80;48.60
78675;BME280;67990;59.826;30.108;2023-04-10T17:47:43;102453.06;;;5.74;48.79
78675;BME280;67990;59.826;30.108;2023-04-10T17:52:55;102453.06;;;5.74;48.41
78675;BME280;67990;59.826;30.108;2023-04-10T17:55:23;102454.88;;;5.72;48.19
78675;BME280;67990;59.826;30.108;2023-04-10T18:00:36;102453.41;;;5.65;47.78
78675;BME280;67990;59.826;30.108;2023-04-10T18:03:22;102450.78;;;5.65;47.73
78675;BME280;67990;59.826;30.108;2023-04-10T18:05:49;102458.63;;;5.65;47.43
78675;BME280;67990;59.826;30.108;2023-04-10T18:08:34;102449.41;;;5.57;47.64
78675;BME280;67990;59.826;30.108;2023-04-10T18:11:03;102452.94;;;5.56;47.59
78675;BME280;67990;59.826;30.108;2023-04-10T18:13:47;102449.53;;;5.54;47.58
78675;BME280;67990;59.826;30.108;2023-04-10T18:16:33;102447.91;;;5.51;47.55
78675;BME280;67990;59.826;30.108;2023-04-10T18:19:01;102443.59;;;5.50;47.33
78675;BME280;67990;59.826;30.108;2023-04-10T18:21:28;102435.03;;;5.47;47.34
78675;BME280;67990;59.826;30.108;2023-04-10T18:26:41;102435.22;;;5.42;47.29
78675;BME280;67990;59.826;30.108;2023-04-10T18:31:55;102442.63;;;5.31;47.66
78675;BME280;67990;59.826;30.108;2023-04-10T18:34:23;102428.81;;;5.29;47.65
78675;BME280;67990;59.826;30.108;2023-04-10T18:36:50;102434.34;;;5.20;47.96
78675;BME280;67990;59.826;30.108;2023-04-10T18:39:18;102439.88;;;5.13;48.59
78675;BME280;67990;59.826;30.108;2023-04-10T18:41:45;102436.47;;;5.11;48.56
78675;BME280;67990;59.826;30.108;2023-04-10T18:44:12;102435.69;;;5.09;48.68
78675;BME280;67990;59.826;30.108;2023-04-10T18:46:39;102428.72;;;5.09;48.70
78675;BME280;67990;59.826;30.108;2023-04-10T18:49:08;102434.09;;;5.05;49.26
78675;BME280;67990;59.826;30.108;2023-04-10T18:51:37;102426.47;;;5.00;49.05
78675;BME280;67990;59.826;30.108;2023-04-10T18:54:04;102426.88;;;4.90;49.36
78675;BME280;67990;59.826;30.108;2023-04-10T18:56:31;102425.44;;;4.81;49.90
78675;BME280;67990;59.826;30.108;2023-04-10T18:59:00;102428.44;;;4.71;50.18
78675;BME280;67990;59.826;30.108;2023-04-10T19:01:46;102426.72;;;4.47;50.80
78675;BME280;67990;59.826;30.108;2023-04-10T19:04:13;102430.59;;;4.35;50.96
78675;BME280;67990;59.826;30.108;2023-04-10T19:06:42;102432.66;;;4.50;50.91
78675;BME280;67990;59.826;30.108;2023-04-10T19:09:10;102427.69;;;4.44;51.36
78675;BME280;67990;59.826;30.108;2023-04-10T19:11:56;102420.19;;;4.35;51.84
78675;BME280;67990;59.826;30.108;2023-04-10T19:14:24;102423.84;;;4.30;51.58
78675;BME280;67990;59.826;30.108;2023-04-10T19:16:51;102414.56;;;4.23;51.73
78675;BME280;67990;59.826;30.108;2023-04-10T19:19:36;102416.69;;;4.12;52.30
78675;BME280;67990;59.826;30.108;2023-04-10T19:22:05;102419.72;;;4.00;52.69
78675;BME280;67990;59.826;30.108;2023-04-10T19:27:17;102415.91;;;3.84;52.88
78675;BME280;67990;59.826;30.108;2023-04-10T19:32:49;102406.91;;;3.68;53.56
78675;BME280;67990;59.826;30.108;2023-04-10T19:35:17;102408.00;;;3.61;53.69
78675;BME280;67990;59.826;30.108;2023-04-10T19:37:45;102398.56;;;3.58;53.76
78675;BME280;67990;59.826;30.108;2023-04-10T19:40:15;102402.66;;;3.39;54.63
78675;BME280;67990;59.826;30.108;2023-04-10T19:43:00;102396.03;;;3.02;56.05
78675;BME280;67990;59.826;30.108;2023-04-10T19:45:27;102403.19;;;3.23;55.16
78675;BME280;67990;59.826;30.108;2023-04-10T19:48:15;102398.69;;;3.28;55.71
78675;BME280;67990;59.826;30.108;2023-04-10T19:53:29;102399.19;;;3.13;56.29
78675;BME280;67990;59.826;30.108;2023-04-10T19:55:56;102392.34;;;3.10;56.09
78675;BME280;67990;59.826;30.108;2023-04-10T19:58:42;102387.06;;;3.12;56.24
78675;BME280;67990;59.826;30.108;2023-04-10T20:01:09;102397.56;;;3.09;56.29
78675;BME280;67990;59.826;30.108;2023-04-10T20:03:37;102391.56;;;3.07;56.56
78675;BME280;67990;59.826;30.108;2023-04-10T20:06:05;102384.00;;;2.99;56.63
78675;BME280;67990;59.826;30.108;2023-04-10T20:08:34;102392.88;;;2.92;56.72
78675;BME280;67990;59.826;30.108;2023-04-10T20:11:02;102391.13;;;2.93;56.90
78675;BME280;67990;59.826;30.108;2023-04-10T20:13:30;102391.97;;;2.93;56.90
78675;BME280;67990;59.826;30.108;2023-04-10T20:15:58;102381.59;;;2.93;56.61
78675;BME280;67990;59.826;30.108;2023-04-10T20:18:26;102375.88;;;2.82;56.91
78675;BME280;67990;59.826;30.108;2023-04-10T20:20:53;102381.78;;;2.87;57.29
78675;BME280;67990;59.826;30.108;2023-04-10T20:23:57;102378.28;;;2.88;57.07
78675;BME280;67990;59.826;30.108;2023-04-10T20:26:24;102375.88;;;2.82;57.05
78675;BME280;67990;59.826;30.108;2023-04-10T20:28:51;102372.66;;;2.74;57.85
78675;BME280;67990;59.826;30.108;2023-04-10T20:31:18;102360.78;;;2.66;58.26
78675;BME280;67990;59.826;30.108;2023-04-10T20:36:49;102365.22;;;2.01;62.06
78675;BME280;67990;59.826;30.108;2023-04-10T20:39:18;102363.78;;;1.91;63.10
78675;BME280;67990;59.826;30.108;2023-04-10T20:41:45;102359.72;;;2.13;62.51
78675;BME280;67990;59.826;30.108;2023-04-10T20:44:12;102357.38;;;2.35;61.52